createdAt,value
2022-10-22T00:00:14.012Z,83.40
2022-10-22T00:02:42.090Z,83.50
2022-10-22T00:05:10.194Z,83.50
2022-10-22T00:07:44.191Z,83.60
2022-10-22T00:10:14.721Z,83.70
2022-10-22T00:12:41.841Z,83.60
2022-10-22T00:15:22.821Z,83.60
2022-10-22T00:17:50.483Z,83.80
2022-10-22T00:20:20.093Z,83.70
2022-10-22T00:25:26.577Z,83.90
2022-10-22T00:27:54.063Z,83.80
2022-10-22T00:30:25.173Z,83.90
2022-10-22T00:32:57.913Z,84.10
2022-10-22T00:35:26.029Z,84.00
2022-10-22T00:37:59.661Z,84.00
2022-10-22T00:40:34.795Z,84.00
2022-10-22T00:43:06.030Z,84.00
2022-10-22T00:45:33.476Z,84.00
2022-10-22T00:48:06.375Z,83.90
2022-10-22T00:50:47.495Z,83.90
2022-10-22T00:53:26.665Z,84.00
2022-10-22T00:55:55.517Z,84.10
2022-10-22T00:58:28.549Z,84.20
2022-10-22T01:00:57.349Z,84.30
2022-10-22T01:03:30.039Z,84.40
2022-10-22T01:06:04.018Z,84.20
2022-10-22T01:08:40.254Z,84.30
2022-10-22T01:11:24.101Z,84.30
2022-10-22T01:14:08.269Z,84.30
2022-10-22T01:16:57.185Z,84.30
2022-10-22T01:19:55.296Z,84.00
2022-10-22T01:22:44.651Z,84.00
2022-10-22T01:25:46.339Z,84.20
2022-10-22T01:28:39.215Z,84.30
2022-10-22T01:31:08.323Z,84.30
2022-10-22T01:33:40.727Z,84.40
2022-10-22T01:36:08.924Z,84.40
2022-10-22T01:38:37.767Z,84.60
2022-10-22T01:41:06.447Z,84.80
2022-10-22T01:43:33.977Z,84.90
2022-10-22T01:46:08.490Z,85.00
2022-10-22T01:49:14.560Z,85.20
2022-10-22T01:52:19.821Z,85.30
2022-10-22T01:55:15.418Z,85.40
2022-10-22T01:57:48.366Z,85.60
2022-10-22T02:00:22.609Z,85.80
2022-10-22T02:02:58.459Z,86.00
2022-10-22T02:05:59.863Z,86.20
2022-10-22T02:08:33.511Z,86.30
2022-10-22T02:11:03.585Z,86.60
2022-10-22T02:13:42.636Z,86.90
2022-10-22T02:16:18.609Z,87.00
2022-10-22T02:18:47.844Z,87.40
2022-10-22T02:21:18.212Z,87.60
2022-10-22T02:23:52.282Z,87.70
2022-10-22T02:26:33.369Z,88.10
2022-10-22T02:29:20.810Z,88.20
2022-10-22T02:31:54.177Z,88.50
2022-10-22T02:34:24.669Z,88.50
2022-10-22T02:36:53.320Z,88.50
2022-10-22T02:39:22.168Z,88.60
2022-10-22T02:41:56.777Z,88.60
2022-10-22T02:44:24.742Z,88.80
2022-10-22T02:46:56.477Z,88.80
2022-10-22T02:49:28.763Z,88.90
2022-10-22T02:51:56.025Z,88.90
2022-10-22T02:54:23.586Z,89.10
2022-10-22T02:56:56.556Z,89.20
2022-10-22T02:59:25.513Z,89.30
2022-10-22T03:01:57.682Z,89.30
2022-10-22T03:04:25.046Z,89.30
2022-10-22T03:06:52.580Z,89.50
2022-10-22T03:09:24.970Z,89.60
2022-10-22T03:11:52.837Z,89.50
2022-10-22T03:14:20.152Z,89.60
2022-10-22T03:16:47.810Z,89.60
2022-10-22T03:19:15.677Z,89.70
2022-10-22T03:21:50.807Z,89.70
2022-10-22T03:27:12.912Z,89.90
2022-10-22T03:29:47.692Z,89.80
2022-10-22T03:32:15.344Z,90.00
2022-10-22T03:34:45.778Z,90.10
2022-10-22T03:37:17.328Z,90.10
2022-10-22T03:39:51.083Z,90.30
2022-10-22T03:42:22.271Z,90.30
2022-10-22T03:44:52.608Z,90.30
2022-10-22T03:47:20.180Z,90.40
2022-10-22T03:50:10.479Z,90.30
2022-10-22T03:52:39.568Z,90.40
2022-10-22T03:55:16.771Z,90.40
2022-10-22T03:57:44.279Z,90.50
2022-10-22T04:00:12.031Z,90.60
2022-10-22T04:02:42.825Z,90.60
2022-10-22T04:05:10.335Z,90.60
2022-10-22T04:07:38.018Z,90.70
2022-10-22T04:10:05.909Z,90.70
2022-10-22T04:12:34.000Z,90.70
2022-10-22T04:15:01.335Z,90.70
2022-10-22T04:17:38.407Z,90.80
2022-10-22T04:20:07.047Z,90.70
2022-10-22T04:22:37.818Z,90.70
2022-10-22T04:25:06.635Z,90.80
2022-10-22T04:27:37.300Z,90.80
2022-10-22T04:30:06.808Z,90.80
2022-10-22T04:32:34.575Z,90.80
2022-10-22T04:35:02.108Z,90.80
2022-10-22T04:37:30.535Z,90.90
2022-10-22T04:40:00.119Z,90.90
2022-10-22T04:42:28.716Z,91.00
2022-10-22T04:44:56.066Z,91.00
2022-10-22T04:47:24.487Z,91.00
2022-10-22T04:49:53.971Z,91.10
2022-10-22T04:52:21.501Z,91.10
2022-10-22T04:54:50.401Z,91.10
2022-10-22T04:57:18.111Z,91.20
2022-10-22T04:59:45.607Z,91.30
2022-10-22T05:02:12.817Z,91.40
2022-10-22T05:04:52.613Z,91.50
2022-10-22T05:07:20.234Z,91.40
2022-10-22T05:09:47.483Z,91.60
2022-10-22T05:12:14.610Z,91.70
2022-10-22T05:14:44.936Z,91.70
2022-10-22T05:17:25.374Z,91.90
2022-10-22T05:20:06.017Z,91.80
2022-10-22T05:22:35.511Z,91.80
2022-10-22T05:25:03.087Z,91.80
2022-10-22T05:27:33.434Z,91.80
2022-10-22T05:30:05.251Z,91.90
2022-10-22T05:32:35.080Z,91.90
2022-10-22T05:35:02.285Z,91.90
2022-10-22T05:37:39.048Z,91.90
2022-10-22T05:40:26.401Z,92.00
2022-10-22T05:43:00.778Z,92.00
2022-10-22T05:45:44.383Z,92.10
2022-10-22T05:48:14.430Z,92.20
2022-10-22T05:50:54.081Z,92.10
2022-10-22T05:53:22.770Z,92.10
2022-10-22T05:55:54.092Z,91.90
2022-10-22T05:59:00.292Z,91.70
2022-10-22T06:01:43.192Z,91.50
2022-10-22T06:04:30.322Z,91.30
2022-10-22T06:10:00.722Z,91.10
2022-10-22T06:12:41.954Z,91.00
2022-10-22T06:15:43.900Z,87.60
2022-10-22T06:18:21.262Z,82.60
2022-10-22T06:20:55.034Z,78.90
2022-10-22T06:23:47.439Z,76.20
2022-10-22T06:26:30.763Z,73.70
2022-10-22T06:29:30.017Z,71.80
2022-10-22T06:36:08.281Z,65.70
2022-10-22T06:39:11.057Z,64.70
2022-10-22T06:44:51.696Z,60.70
2022-10-22T06:47:31.676Z,59.80
2022-10-22T06:53:35.307Z,58.40
2022-10-22T06:56:13.898Z,58.20
2022-10-22T06:58:49.038Z,57.80
2022-10-22T07:01:30.399Z,57.00
2022-10-22T07:04:06.423Z,56.30
2022-10-22T07:06:41.433Z,54.60
2022-10-22T07:09:42.805Z,53.20
2022-10-22T07:19:48.440Z,52.60
2022-10-22T07:22:39.085Z,52.20
2022-10-22T07:25:59.109Z,50.90
2022-10-22T07:39:00.008Z,46.10
2022-10-22T07:41:45.430Z,46.20
2022-10-22T07:44:54.147Z,46.20
2022-10-22T07:47:52.952Z,44.80
2022-10-22T07:57:53.766Z,42.40
2022-10-22T08:01:55.940Z,43.30
2022-10-22T08:04:42.459Z,42.90
2022-10-22T09:18:52.341Z,45.80
2022-10-22T09:35:48.484Z,47.80
2022-10-22T09:42:24.754Z,47.40
2022-10-22T09:49:32.267Z,48.80
2022-10-22T09:53:43.549Z,48.80
2022-10-22T10:00:40.725Z,49.70
2022-10-22T10:04:28.641Z,51.10
2022-10-22T10:10:10.302Z,51.90
2022-10-22T10:12:48.200Z,52.60
2022-10-22T10:15:48.902Z,53.40
2022-10-22T10:18:30.126Z,54.10
2022-10-22T10:21:33.032Z,55.50
2022-10-22T10:24:32.872Z,55.90
2022-10-22T10:27:14.744Z,56.90
2022-10-22T10:30:01.585Z,58.10
2022-10-22T10:33:24.077Z,58.60
2022-10-22T10:36:07.302Z,58.90
2022-10-22T10:38:58.451Z,59.00
2022-10-22T10:41:33.408Z,59.40
2022-10-22T10:44:18.204Z,59.60
2022-10-22T10:47:44.599Z,60.10
2022-10-22T10:51:00.443Z,60.20
2022-10-22T10:54:03.433Z,61.30
2022-10-22T10:56:57.523Z,62.20
2022-10-22T10:59:55.499Z,61.80
2022-10-22T11:03:24.352Z,62.40
2022-10-22T11:06:21.677Z,62.60
2022-10-22T11:09:23.554Z,63.60
2022-10-22T11:12:19.806Z,64.20
2022-10-22T11:15:35.216Z,64.10
2022-10-22T11:18:39.460Z,64.20
2022-10-22T11:21:22.880Z,64.50
2022-10-22T11:27:16.862Z,65.40
2022-10-22T11:29:59.340Z,65.50
2022-10-22T11:32:43.074Z,65.90
2022-10-22T11:35:27.429Z,65.80
2022-10-22T11:39:27.906Z,65.90
2022-10-22T11:41:32.979Z,65.80
2022-10-22T11:44:59.280Z,66.10
2022-10-22T11:47:35.750Z,66.40
2022-10-22T11:50:50.856Z,66.30
2022-10-22T11:53:55.758Z,66.00
2022-10-22T11:56:38.843Z,65.20
2022-10-22T11:59:33.717Z,64.00
2022-10-22T12:04:43.529Z,63.30
2022-10-22T12:07:31.780Z,63.10
2022-10-22T12:09:59.458Z,62.80
2022-10-22T12:12:29.793Z,63.00
2022-10-22T12:15:01.329Z,62.90
2022-10-22T12:17:34.722Z,62.80
2022-10-22T12:20:21.116Z,62.60
2022-10-22T12:22:57.569Z,62.70
2022-10-22T12:25:35.496Z,62.70
2022-10-22T12:28:05.719Z,62.30
2022-10-22T12:30:37.468Z,62.40
2022-10-22T12:33:21.578Z,62.50
2022-10-22T12:35:58.071Z,62.60
2022-10-22T12:42:08.830Z,62.70
2022-10-22T12:48:21.370Z,62.40
2022-10-22T12:51:17.089Z,62.60
2022-10-22T12:54:20.447Z,62.70
2022-10-22T12:56:53.473Z,62.40
2022-10-22T12:59:35.614Z,62.70
2022-10-22T13:08:22.049Z,64.70
2022-10-22T13:10:57.914Z,64.80
2022-10-22T13:13:45.961Z,65.20
2022-10-22T13:19:04.675Z,65.80
2022-10-22T13:21:39.486Z,66.10
2022-10-22T13:24:39.154Z,66.20
2022-10-22T13:27:12.585Z,66.10
2022-10-22T13:29:44.524Z,66.00
2022-10-22T13:32:35.289Z,66.70
2022-10-22T13:35:32.520Z,66.30
2022-10-22T13:38:23.439Z,66.40
2022-10-22T13:41:00.887Z,66.30
2022-10-22T13:43:29.046Z,66.40
2022-10-22T13:46:05.589Z,66.50
2022-10-22T13:48:33.177Z,66.60
2022-10-22T13:51:14.970Z,66.90
2022-10-22T13:53:51.621Z,66.90
2022-10-22T13:56:51.955Z,67.20
2022-10-22T13:59:25.578Z,67.30
2022-10-22T14:02:00.394Z,67.60
2022-10-22T14:04:37.144Z,67.80
2022-10-22T14:07:05.445Z,68.10
2022-10-22T14:09:37.403Z,68.50
2022-10-22T14:12:15.356Z,68.80
2022-10-22T14:14:45.341Z,68.90
2022-10-22T14:17:25.345Z,69.20
2022-10-22T14:19:56.036Z,69.50
2022-10-22T14:22:29.032Z,69.80
2022-10-22T14:24:57.437Z,70.20
2022-10-22T14:27:31.422Z,70.40
2022-10-22T14:30:02.533Z,70.50
2022-10-22T14:32:30.682Z,70.60
2022-10-22T14:35:00.317Z,71.00
2022-10-22T14:37:30.630Z,71.30
2022-10-22T14:40:02.952Z,71.70
2022-10-22T14:42:31.608Z,72.00
2022-10-22T14:45:01.091Z,72.30
2022-10-22T14:47:38.883Z,72.40
2022-10-22T14:50:13.417Z,72.90
2022-10-22T14:52:48.325Z,73.20
2022-10-22T14:55:20.532Z,73.30
2022-10-22T14:57:48.085Z,73.70
2022-10-22T15:00:18.001Z,73.90
2022-10-22T15:02:47.013Z,74.20
2022-10-22T15:05:18.050Z,74.40
2022-10-22T15:07:49.261Z,74.70
2022-10-22T15:10:16.898Z,74.80
2022-10-22T15:12:50.294Z,75.20
2022-10-22T15:15:25.582Z,75.00
2022-10-22T15:17:57.855Z,75.50
2022-10-22T15:20:36.073Z,75.80
2022-10-22T15:23:06.575Z,76.10
2022-10-22T15:25:34.178Z,76.20
2022-10-22T15:28:09.343Z,76.30
2022-10-22T15:30:37.751Z,76.30
2022-10-22T15:33:06.053Z,76.30
2022-10-22T15:35:43.471Z,76.40
2022-10-22T15:38:14.851Z,76.50
2022-10-22T15:40:41.906Z,76.60
2022-10-22T15:43:09.288Z,76.70
2022-10-22T15:45:38.367Z,76.80
2022-10-22T15:48:15.360Z,76.60
2022-10-22T15:50:59.892Z,76.70
2022-10-22T15:53:32.385Z,76.60
2022-10-22T15:56:10.104Z,76.90
2022-10-22T15:58:40.544Z,77.30
2022-10-22T16:01:13.770Z,77.70
2022-10-22T16:03:43.553Z,77.70
2022-10-22T16:06:11.187Z,78.00
2022-10-22T16:08:39.797Z,78.20
2022-10-22T16:11:07.305Z,78.00
2022-10-22T16:13:37.264Z,78.00
2022-10-22T16:16:13.847Z,77.90
2022-10-22T16:18:41.673Z,77.90
2022-10-22T16:21:14.767Z,77.80
2022-10-22T16:23:44.630Z,77.80
2022-10-22T16:26:16.110Z,77.80
2022-10-22T16:28:44.010Z,77.90
2022-10-22T16:31:16.434Z,78.10
2022-10-22T16:33:50.002Z,78.30
2022-10-22T16:36:19.934Z,78.60
2022-10-22T16:38:48.541Z,78.60
2022-10-22T16:41:19.671Z,78.70
2022-10-22T16:43:54.680Z,78.80
2022-10-22T16:46:25.359Z,78.70
2022-10-22T16:48:53.590Z,78.70
2022-10-22T16:51:23.809Z,78.60
2022-10-22T16:53:55.694Z,78.60
2022-10-22T16:56:31.714Z,78.40
2022-10-22T16:59:03.165Z,78.30
2022-10-22T17:01:36.747Z,78.10
2022-10-22T17:04:07.141Z,78.10
2022-10-22T17:06:34.660Z,78.20
2022-10-22T17:09:05.556Z,78.30
2022-10-22T17:11:36.404Z,78.40
2022-10-22T17:14:10.626Z,78.40
2022-10-22T17:16:38.022Z,78.40
2022-10-22T17:19:05.415Z,78.30
2022-10-22T17:21:34.116Z,78.30
2022-10-22T17:24:04.785Z,78.20
2022-10-22T17:26:34.797Z,78.40
2022-10-22T17:29:02.060Z,78.40
2022-10-22T17:31:39.284Z,78.50
2022-10-22T17:34:15.109Z,78.70
2022-10-22T17:36:46.101Z,78.80
2022-10-22T17:39:17.899Z,78.80
2022-10-22T17:41:45.975Z,79.20
2022-10-22T17:44:18.158Z,79.20
2022-10-22T17:46:49.798Z,79.20
2022-10-22T17:49:19.923Z,79.60
2022-10-22T17:51:50.216Z,79.80
2022-10-22T17:54:20.632Z,80.10
2022-10-22T17:56:48.905Z,80.30
2022-10-22T17:59:20.127Z,80.40
2022-10-22T18:01:50.960Z,80.40
2022-10-22T18:04:20.398Z,80.40
2022-10-22T18:06:49.314Z,80.30
2022-10-22T18:09:22.708Z,80.20
2022-10-22T18:11:58.711Z,80.40
2022-10-22T18:14:26.345Z,80.50
2022-10-22T18:16:56.470Z,80.50
2022-10-22T18:19:24.748Z,80.50
2022-10-22T18:21:52.314Z,80.60
2022-10-22T18:24:24.215Z,80.40
2022-10-22T18:26:53.386Z,80.50
2022-10-22T18:29:21.147Z,80.30
2022-10-22T18:31:49.370Z,80.30
2022-10-22T18:34:20.225Z,80.30
2022-10-22T18:36:50.435Z,80.20
2022-10-22T18:39:20.342Z,80.50
2022-10-22T18:41:50.960Z,80.70
2022-10-22T18:44:18.358Z,80.70
2022-10-22T18:46:49.646Z,80.90
2022-10-22T18:49:19.422Z,81.10
2022-10-22T18:51:52.690Z,81.20
2022-10-22T18:54:24.390Z,81.20
2022-10-22T18:56:53.343Z,81.40
2022-10-22T18:59:27.600Z,81.30
2022-10-22T19:01:57.802Z,81.40
2022-10-22T19:04:27.643Z,81.40
2022-10-22T19:07:00.940Z,81.30
2022-10-22T19:09:29.019Z,81.20
2022-10-22T19:12:01.321Z,81.00
2022-10-22T19:17:21.476Z,80.90
2022-10-22T19:19:52.089Z,80.80
2022-10-22T19:22:20.989Z,81.00
2022-10-22T19:24:54.610Z,81.30
2022-10-22T19:27:21.893Z,81.60
2022-10-22T19:29:59.486Z,81.60
2022-10-22T19:32:30.157Z,81.60
2022-10-22T19:35:00.876Z,81.60
2022-10-22T19:37:31.512Z,82.20
2022-10-22T19:39:58.879Z,82.20
2022-10-22T19:42:29.526Z,82.40
2022-10-22T19:45:00.077Z,82.60
2022-10-22T19:47:31.073Z,82.60
2022-10-22T19:50:21.187Z,82.80
2022-10-22T19:52:52.189Z,82.90
2022-10-22T19:55:22.338Z,83.00
2022-10-22T19:57:50.223Z,83.20
2022-10-22T20:00:19.300Z,83.10
2022-10-22T20:02:46.616Z,83.20
2022-10-22T20:05:13.952Z,83.30
2022-10-22T20:07:41.597Z,83.50
2022-10-22T20:10:12.122Z,83.60
2022-10-22T20:12:40.063Z,83.80
2022-10-22T20:15:09.450Z,84.10
2022-10-22T20:17:40.287Z,84.20
2022-10-22T20:20:14.078Z,84.10
2022-10-22T20:22:43.360Z,84.40
2022-10-22T20:25:14.139Z,84.50
2022-10-22T20:27:46.582Z,84.60
2022-10-22T20:32:49.972Z,84.60
2022-10-22T20:35:17.772Z,84.50
2022-10-22T20:37:45.058Z,84.60
2022-10-22T20:40:18.858Z,84.80
2022-10-22T20:42:53.656Z,84.70
2022-10-22T20:45:20.893Z,84.90
2022-10-22T20:47:52.008Z,84.80
2022-10-22T20:50:35.999Z,84.90
2022-10-22T20:53:03.417Z,84.80
2022-10-22T20:55:40.715Z,84.80
2022-10-22T20:58:07.938Z,84.70
2022-10-22T21:00:36.473Z,84.70
2022-10-22T21:03:09.600Z,84.60
2022-10-22T21:05:39.374Z,84.60
2022-10-22T21:08:06.671Z,84.60
2022-10-22T21:10:36.642Z,84.80
2022-10-22T21:13:04.400Z,84.80
2022-10-22T21:15:39.305Z,84.80
2022-10-22T21:18:06.813Z,84.70
2022-10-22T21:20:34.277Z,84.80
2022-10-22T21:23:02.486Z,84.80
2022-10-22T21:25:30.458Z,84.80
2022-10-22T21:27:58.244Z,85.00
2022-10-22T21:30:25.526Z,84.90
2022-10-22T21:33:04.954Z,85.10
2022-10-22T21:35:36.185Z,85.20
2022-10-22T21:38:05.229Z,85.30
2022-10-22T21:40:43.701Z,85.20
2022-10-22T21:43:11.024Z,85.20
2022-10-22T21:45:41.264Z,85.20
2022-10-22T21:48:13.631Z,85.10
2022-10-22T21:50:50.934Z,85.20
2022-10-22T21:53:18.319Z,85.00
2022-10-22T21:55:45.923Z,85.00
2022-10-22T21:58:13.210Z,85.00
2022-10-22T22:00:40.773Z,84.60
2022-10-22T22:03:08.136Z,84.80
2022-10-22T22:05:35.562Z,84.90
2022-10-22T22:08:02.845Z,84.90
2022-10-22T22:10:32.792Z,85.00
2022-10-22T22:13:09.382Z,85.00
2022-10-22T22:15:37.055Z,84.90
2022-10-22T22:18:04.653Z,85.00
2022-10-22T22:20:37.402Z,84.80
2022-10-22T22:23:10.882Z,84.90
2022-10-22T22:25:41.112Z,84.60
2022-10-22T22:28:16.626Z,84.40
2022-10-22T22:30:44.803Z,84.10
2022-10-22T22:33:13.123Z,83.80
2022-10-22T22:35:40.865Z,83.90
2022-10-22T22:38:15.547Z,83.60
2022-10-22T22:40:45.292Z,83.50
2022-10-22T22:43:12.483Z,83.50
2022-10-22T22:45:43.588Z,83.20
2022-10-22T22:48:11.189Z,83.20
2022-10-22T22:50:39.097Z,83.10
2022-10-22T22:53:24.558Z,82.90
2022-10-22T22:55:52.294Z,82.80
2022-10-22T22:58:19.558Z,82.70
2022-10-22T23:00:49.878Z,82.60
2022-10-22T23:03:17.283Z,82.60
2022-10-22T23:05:45.048Z,82.60
2022-10-22T23:08:12.345Z,82.60
2022-10-22T23:10:45.407Z,82.50
2022-10-22T23:13:12.995Z,82.40
2022-10-22T23:15:45.948Z,82.60
2022-10-22T23:18:16.762Z,82.60
2022-10-22T23:20:43.832Z,82.70
2022-10-22T23:23:11.194Z,82.70
2022-10-22T23:25:39.765Z,82.80
2022-10-22T23:28:09.774Z,82.80
2022-10-22T23:30:43.274Z,82.80
2022-10-22T23:33:12.861Z,82.80
2022-10-22T23:35:43.922Z,82.90
2022-10-22T23:38:18.410Z,83.10
2022-10-22T23:40:56.616Z,83.10
2022-10-22T23:43:27.617Z,83.20
2022-10-22T23:45:57.859Z,83.30
2022-10-22T23:48:25.868Z,83.30
2022-10-22T23:53:25.924Z,83.30
2022-10-22T23:56:03.623Z,83.40
2022-10-22T23:58:31.236Z,83.40
